Littleport, United Kingdom
Current Conditions -  °F | °C
As of 5:51 AM on Sunday 23 Nov 2014 (Local Time) from EGUN Reporting Station
Light Rain Light Rain  
Wind Chill: 52°   Ceiling: 300
Heat Index: 52°   Visibility: 3mi
Dew Point: 50°   Wind: 9mph
Humidity: 94%   Direction: 320°NW
Pressure: 29.96"   Gusts: NA
Location:  52.46°N, 0.31°E
Report Text: EGUN 230551Z AUTO 32008KT 5000 R29/1300 -RA BR OVC003 11/10 A2996 RMK AO2 CIG 003V005 OVC V BKN
Loading
Personal Weather Stations






























Interactive Weather Map New forecast layout! Learn more

10-Day Weather Forecast

Advertisements
Track Severe Weather on mobile